Time;durP1;ratioP1;P1;durP2;ratioP2;P2;SDS_P1;SDS_P2;PMS_P1;PMS_P2;Temp;Humidity;BMP_temperature;BMP_pressure;BME280_temperature;BME280_humidity;BME280_pressure;Samples;Min_cycle;Max_cycle;Signal;HPM_P1;HPM_P2
2021/07/09 00:02:16;;;;;;;20.92;9.43;;;;;;;22.03;69.61;100331.06;4785111;29;20055;-47
2021/07/09 00:04:42;;;;;;;23.38;10.00;;;;;;;22.01;69.86;100331.16;4787884;29;20054;-45
2021/07/09 00:07:08;;;;;;;22.55;9.27;;;;;;;21.99;70.31;100333.06;4786830;29;20075;-50
2021/07/09 00:09:34;;;;;;;23.20;10.27;;;;;;;21.97;70.84;100329.69;4787904;29;20047;-47
2021/07/09 00:12:00;;;;;;;20.75;9.48;;;;;;;21.93;70.50;100333.44;4787669;29;20138;-49
2021/07/09 00:14:28;;;;;;;18.58;8.95;;;;;;;21.92;71.19;100335.28;4788670;30;20078;-47
2021/07/09 00:16:54;;;;;;;20.75;9.35;;;;;;;21.89;70.96;100329.34;4786782;29;20051;-47
2021/07/09 00:19:20;;;;;;;19.70;10.18;;;;;;;21.87;71.46;100328.63;4787526;29;20043;-47
2021/07/09 00:21:46;;;;;;;15.85;9.10;;;;;;;21.85;71.66;100328.72;4771426;30;20047;-47
2021/07/09 00:24:12;;;;;;;19.33;9.90;;;;;;;21.83;71.97;100327.97;4786413;29;20110;-48
2021/07/09 00:26:38;;;;;;;22.63;10.20;;;;;;;21.79;72.68;100326.50;4787807;29;20516;-48
2021/07/09 00:29:06;;;;;;;22.50;9.93;;;;;;;21.76;72.62;100324.06;4787244;30;20053;-49
2021/07/09 00:31:32;;;;;;;25.70;9.90;;;;;;;21.75;72.83;100330.31;4787019;29;20136;-49
2021/07/09 00:34:00;;;;;;;25.00;9.80;;;;;;;21.72;72.92;100327.88;4786511;29;20075;-48
2021/07/09 00:36:26;;;;;;;20.17;10.00;;;;;;;21.71;72.87;100328.00;4787192;29;20047;-47
2021/07/09 00:38:52;;;;;;;24.55;10.70;;;;;;;21.69;72.78;100319.31;4787288;29;20070;-47
2021/07/09 00:41:18;;;;;;;27.17;10.68;;;;;;;21.66;72.48;100320.38;4787714;29;20086;-48
2021/07/09 00:43:44;;;;;;;26.13;10.57;;;;;;;21.65;72.31;100318.69;4786910;29;20422;-48
2021/07/09 00:46:10;;;;;;;26.50;9.85;;;;;;;21.63;72.58;100315.28;4786645;29;20043;-47
2021/07/09 00:48:36;;;;;;;24.02;9.40;;;;;;;21.62;72.37;100318.03;4786451;29;20082;-48
2021/07/09 00:51:09;;;;;;;19.65;9.25;;;;;;;21.61;72.46;100321.66;4785281;29;20046;-47
2021/07/09 00:53:35;;;;;;;24.08;10.00;;;;;;;21.59;72.96;100319.09;4786741;29;20459;-48
2021/07/09 00:56:02;;;;;;;23.50;9.68;;;;;;;21.56;72.68;100316.69;4787110;29;20507;-48
2021/07/09 00:58:27;;;;;;;24.17;9.70;;;;;;;21.54;73.42;100311.50;4787363;29;20570;-49
2021/07/09 01:00:55;;;;;;;23.20;9.48;;;;;;;21.53;74.22;100312.44;4786418;29;20134;-47
2021/07/09 01:03:22;;;;;;;17.85;9.65;;;;;;;21.52;74.66;100313.38;5714085;24;20030;-47
2021/07/09 01:05:48;;;;;;;24.85;9.93;;;;;;;21.48;74.99;100297.84;4781894;29;20055;-48
2021/07/09 01:08:14;;;;;;;28.20;9.00;;;;;;;21.46;74.77;100310.31;4786326;29;20111;-48
2021/07/09 01:10:43;;;;;;;17.95;9.30;;;;;;;21.45;74.87;100311.28;4786852;30;20051;-49
2021/07/09 01:13:09;;;;;;;16.35;9.05;;;;;;;21.44;74.83;100304.31;4786321;29;20066;-48
2021/07/09 01:15:36;;;;;;;23.33;8.55;;;;;;;21.44;74.94;100313.09;4786586;29;20130;-49
2021/07/09 01:18:03;;;;;;;21.63;10.50;;;;;;;21.42;75.35;100309.69;4786476;29;20043;-49
2021/07/09 01:20:29;;;;;;;20.45;9.40;;;;;;;21.40;75.31;100308.97;4785695;29;20047;-51
2021/07/09 01:22:56;;;;;;;19.33;9.35;;;;;;;21.39;75.46;100315.22;4786075;29;20051;-53
2021/07/09 01:25:23;;;;;;;17.42;9.32;;;;;;;21.37;75.41;100316.25;4786650;29;20047;-51
2021/07/09 01:28:02;;;;;;;17.92;8.73;;;;;;;21.37;75.53;100313.59;4785722;30;20337;-52
2021/07/09 01:30:28;;;;;;;17.80;9.85;;;;;;;21.35;75.99;100305.78;4785761;29;20086;-50
2021/07/09 01:32:55;;;;;;;23.67;9.55;;;;;;;21.36;76.07;100306.63;4786317;30;20082;-51
2021/07/09 01:35:23;;;;;;;22.23;10.35;;;;;;;21.35;76.39;100295.22;4787048;29;20091;-48
2021/07/09 01:38:06;;;;;;;17.42;8.98;;;;;;;21.36;76.13;100301.31;4785418;29;20059;-47
2021/07/09 01:40:32;;;;;;;23.20;9.48;;;;;;;21.36;76.47;100296.88;4786148;29;20466;-47
2021/07/09 01:42:59;;;;;;;22.52;9.90;;;;;;;21.36;76.75;100303.97;4786224;29;20084;-48
2021/07/09 01:45:24;;;;;;;20.75;9.43;;;;;;;21.34;77.27;100292.66;4786738;29;20079;-48
2021/07/09 01:47:54;;;;;;;18.00;9.70;;;;;;;21.35;77.23;100307.59;4785122;29;20089;-48
2021/07/09 01:50:20;;;;;;;22.90;9.98;;;;;;;21.33;77.10;100302.41;4785800;29;20046;-48
2021/07/09 01:52:46;;;;;;;20.83;9.75;;;;;;;21.34;77.07;100304.09;4786346;30;20165;-48
2021/07/09 01:55:13;;;;;;;22.90;9.48;;;;;;;21.35;77.21;100303.16;4783980;29;20539;-49
2021/07/09 01:57:40;;;;;;;16.90;10.25;;;;;;;21.37;76.62;100295.94;4784964;29;20047;-48
2021/07/09 02:00:10;;;;;;;21.13;9.95;;;;;;;21.39;76.62;100301.97;4785431;29;20051;-48
2021/07/09 02:02:41;;;;;;;24.42;10.75;;;;;;;21.40;76.72;100303.69;4784766;29;20050;-49
2021/07/09 02:05:09;;;;;;;20.60;10.70;;;;;;;21.42;76.47;100300.91;4785718;29;20062;-48
2021/07/09 02:07:37;;;;;;;23.47;11.17;;;;;;;21.44;76.59;100306.94;4784409;29;20054;-48
2021/07/09 02:10:05;;;;;;;23.00;11.77;;;;;;;21.45;76.37;100306.84;4785709;30;20130;-48
2021/07/09 02:12:33;;;;;;;23.60;12.07;;;;;;;21.46;76.22;100307.66;4785856;29;20130;-49
2021/07/09 02:15:00;;;;;;;23.90;11.98;;;;;;;21.49;75.70;100300.38;4785056;29;20089;-47
2021/07/09 02:17:26;;;;;;;19.73;10.05;;;;;;;21.51;75.28;100300.28;4785790;29;20055;-49
2021/07/09 02:19:52;;;;;;;26.90;11.38;;;;;;;21.53;75.09;100303.66;4785399;29;20145;-48
2021/07/09 02:22:19;;;;;;;21.88;10.30;;;;;;;21.56;75.04;100300.81;4786315;29;20493;-49
2021/07/09 02:24:47;;;;;;;28.13;11.45;;;;;;;21.59;75.38;100305.03;4785768;29;20050;-48
2021/07/09 02:27:13;;;;;;;21.63;10.82;;;;;;;21.58;74.98;100300.69;4784992;30;20579;-48
2021/07/09 02:29:40;;;;;;;21.38;10.73;;;;;;;21.62;74.85;100304.81;4768973;30;20078;-48
2021/07/09 02:32:08;;;;;;;25.75;11.07;;;;;;;21.62;75.00;100313.59;4785237;29;20047;-47
2021/07/09 02:34:36;;;;;;;31.83;11.23;;;;;;;21.65;75.11;100302.81;4785001;29;20465;-47
2021/07/09 02:37:03;;;;;;;26.67;11.35;;;;;;;21.68;75.14;100307.03;4785028;29;20054;-48
2021/07/09 02:39:28;;;;;;;22.27;10.52;;;;;;;21.69;75.36;100311.38;4785524;29;20047;-48
2021/07/09 02:41:55;;;;;;;23.20;9.82;;;;;;;21.71;75.05;100302.38;4784833;29;20437;-48
2021/07/09 02:44:21;;;;;;;26.75;10.57;;;;;;;21.74;75.07;100304.81;4784748;29;20047;-49
2021/07/09 02:46:47;;;;;;;18.98;9.98;;;;;;;21.77;75.31;100309.88;4784938;29;20051;-49
2021/07/09 02:49:13;;;;;;;24.48;9.77;;;;;;;21.79;75.11;100305.31;4785133;30;20597;-49
2021/07/09 02:51:38;;;;;;;20.95;9.77;;;;;;;21.82;75.07;100310.41;4769184;29;20054;-50
2021/07/09 02:54:04;;;;;;;22.40;9.77;;;;;;;21.83;75.23;100312.06;4773923;29;20075;-47
2021/07/09 02:56:30;;;;;;;22.98;9.82;;;;;;;21.84;75.54;100297.91;4785772;30;20047;-49
2021/07/09 02:58:58;;;;;;;28.77;11.18;;;;;;;21.88;75.27;100309.09;4784954;29;20043;-49
2021/07/09 03:01:25;;;;;;;20.10;11.05;;;;;;;21.90;75.11;100308.06;4784628;29;20047;-49
2021/07/09 03:03:51;;;;;;;23.60;10.35;;;;;;;21.93;75.17;100306.97;4784997;29;20846;-48
2021/07/09 03:06:17;;;;;;;20.88;9.85;;;;;;;21.96;75.04;100307.66;4785789;29;20062;-49
2021/07/09 03:08:42;;;;;;;24.23;9.60;;;;;;;21.99;74.99;100311.88;4785302;30;20043;-49
2021/07/09 03:11:08;;;;;;;18.38;9.85;;;;;;;22.02;74.69;100306.38;4784585;29;20411;-49
2021/07/09 03:13:33;;;;;;;21.23;9.98;;;;;;;22.05;74.74;100308.78;4784397;29;20074;-49
2021/07/09 03:15:59;;;;;;;23.50;9.55;;;;;;;22.08;74.48;100305.09;4787342;29;20542;-49
2021/07/09 03:18:25;;;;;;;29.08;9.93;;;;;;;22.10;74.15;100300.50;4786859;30;20471;-48
2021/07/09 03:20:51;;;;;;;18.05;8.93;;;;;;;22.14;73.50;100304.66;4788558;29;20047;-49
2021/07/09 03:23:16;;;;;;;20.60;9.85;;;;;;;22.17;73.17;100301.75;4788994;30;20568;-49
2021/07/09 03:25:42;;;;;;;21.83;10.00;;;;;;;22.20;73.25;100305.03;4788129;29;20075;-47
2021/07/09 03:28:08;;;;;;;25.50;9.70;;;;;;;22.23;73.26;100301.31;4787821;29;20090;-47
2021/07/09 03:30:33;;;;;;;23.85;11.27;;;;;;;22.28;73.46;100305.34;4788947;29;20133;-47
2021/07/09 03:32:59;;;;;;;16.58;9.85;;;;;;;22.32;72.94;100305.94;4787711;29;20517;-48
2021/07/09 03:35:25;;;;;;;20.55;11.00;;;;;;;22.35;72.71;100305.72;4787756;29;20047;-48
2021/07/09 03:37:50;;;;;;;14.32;9.43;;;;;;;22.38;72.38;100297.56;4788227;29;20852;-50
2021/07/09 03:40:16;;;;;;;20.63;10.18;;;;;;;22.44;72.27;100304.22;4788313;29;20047;-49
2021/07/09 03:42:42;;;;;;;23.17;12.52;;;;;;;22.49;72.12;100312.66;4788323;29;20049;-48
2021/07/09 03:45:08;;;;;;;15.25;9.10;;;;;;;22.52;72.17;100310.63;4788639;29;20071;-49
2021/07/09 03:47:34;;;;;;;25.30;12.32;;;;;;;22.59;72.14;100313.69;4787411;29;20066;-49
2021/07/09 03:49:59;;;;;;;21.50;9.13;;;;;;;22.63;70.89;100308.03;4788411;29;20055;-47
2021/07/09 03:52:25;;;;;;;18.70;10.43;;;;;;;22.69;70.72;100312.03;4787606;29;20085;-54
2021/07/09 03:54:51;;;;;;;18.83;9.32;;;;;;;22.74;70.53;100312.56;5233705;24;20087;-47
2021/07/09 03:57:16;;;;;;;15.70;10.23;;;;;;;22.79;70.92;100310.41;4769272;30;20466;-49
2021/07/09 03:59:42;;;;;;;19.65;8.93;;;;;;;22.84;70.65;100305.63;4769709;30;20515;-48
2021/07/09 04:02:08;;;;;;;26.13;9.18;;;;;;;22.89;70.52;100298.16;4769710;30;20052;-48
2021/07/09 04:04:33;;;;;;;22.42;9.95;;;;;;;22.93;70.02;100299.59;4769891;30;20104;-47
2021/07/09 04:06:59;;;;;;;25.15;9.48;;;;;;;23.00;69.72;100302.66;4770390;30;20059;-49
2021/07/09 04:09:25;;;;;;;18.55;8.73;;;;;;;23.04;69.23;100301.44;4780482;29;20071;-49
2021/07/09 04:11:50;;;;;;;18.15;9.93;;;;;;;23.09;69.22;100301.94;4770145;29;20180;-46
2021/07/09 04:14:16;;;;;;;16.70;8.88;;;;;;;23.15;69.36;100299.66;4770658;29;20055;-48
2021/07/09 04:16:42;;;;;;;17.58;8.95;;;;;;;23.22;69.35;100298.25;4770103;30;20058;-48
2021/07/09 04:19:08;;;;;;;16.95;8.85;;;;;;;23.28;68.46;100298.75;4769799;30;20048;-49
2021/07/09 04:21:33;;;;;;;17.23;9.20;;;;;;;23.33;68.74;100305.38;4769370;30;20545;-47
2021/07/09 04:23:59;;;;;;;22.80;13.52;;;;;;;23.38;67.63;100303.22;4774766;29;20050;-49
2021/07/09 04:26:24;;;;;;;17.70;8.25;;;;;;;23.45;67.03;100299.13;4773148;30;20047;-52
2021/07/09 04:28:50;;;;;;;17.95;8.30;;;;;;;23.52;67.07;100297.69;4776125;29;20477;-48
2021/07/09 04:31:16;;;;;;;15.02;7.80;;;;;;;23.59;66.67;100293.63;4776028;30;20044;-59
2021/07/09 04:33:45;;;;;;;18.17;8.30;;;;;;;23.66;65.74;100293.94;4768824;29;20051;-58
2021/07/09 04:36:11;;;;;;;16.48;7.30;;;;;;;23.74;65.24;100298.66;4768667;30;20056;-55
2021/07/09 04:38:36;;;;;;;11.63;7.32;;;;;;;23.81;64.92;100295.41;4769677;30;20058;-55
2021/07/09 04:41:02;;;;;;;14.50;7.70;;;;;;;23.87;64.82;100286.94;4769371;30;20054;-55
2021/07/09 04:43:28;;;;;;;13.95;7.20;;;;;;;23.97;63.86;100298.50;4770387;29;20047;-55
2021/07/09 04:45:53;;;;;;;13.95;7.22;;;;;;;24.05;63.86;100292.59;4769181;29;20451;-56
2021/07/09 04:48:19;;;;;;;15.95;6.70;;;;;;;24.13;63.08;100286.69;4764153;30;20051;-56
2021/07/09 04:50:45;;;;;;;19.48;7.88;;;;;;;24.19;61.62;100280.88;4762013;29;20134;-56
2021/07/09 04:53:10;;;;;;;11.85;6.25;;;;;;;24.27;61.57;100281.97;4768273;30;20048;-57
2021/07/09 04:55:36;;;;;;;13.20;6.03;;;;;;;24.36;60.32;100277.69;4769571;30;20064;-55
2021/07/09 04:58:01;;;;;;;9.23;5.32;;;;;;;24.43;59.47;100278.91;4765997;29;20051;-56
2021/07/09 05:00:27;;;;;;;10.65;5.10;;;;;;;24.49;58.79;100278.38;4768873;30;20423;-57
2021/07/09 05:02:57;;;;;;;8.52;4.90;;;;;;;24.54;57.91;100270.03;4768802;29;20044;-55
2021/07/09 05:05:22;;;;;;;10.38;5.03;;;;;;;24.66;57.08;100275.16;4766614;29;20046;-56
2021/07/09 05:07:49;;;;;;;10.20;5.00;;;;;;;24.74;56.79;100272.72;4763563;29;20835;-55
2021/07/09 05:10:14;;;;;;;9.75;5.20;;;;;;;24.82;56.77;100274.72;4768439;30;20051;-55
2021/07/09 05:12:41;;;;;;;10.32;4.95;;;;;;;24.91;56.31;100274.00;4769238;30;20048;-56
2021/07/09 05:15:07;;;;;;;10.93;4.30;;;;;;;24.98;55.53;100274.28;4769392;29;20043;-56
2021/07/09 05:17:32;;;;;;;10.82;4.88;;;;;;;25.05;55.96;100281.66;4769572;29;20051;-57
2021/07/09 05:19:58;;;;;;;7.65;4.53;;;;;;;25.13;55.62;100276.50;4769371;29;20051;-57
2021/07/09 05:22:24;;;;;;;7.03;4.75;;;;;;;25.20;55.44;100282.16;4768180;29;20040;-56
2021/07/09 05:24:54;;;;;;;7.75;4.85;;;;;;;25.29;55.77;100282.19;4769119;30;20051;-51
2021/07/09 05:27:24;;;;;;;6.65;5.38;;;;;;;25.40;55.11;100283.09;4769002;29;20136;-51
2021/07/09 05:29:49;;;;;;;8.57;5.32;;;;;;;25.48;55.03;100283.28;4771563;30;20043;-50
2021/07/09 05:32:22;;;;;;;12.98;7.10;;;;;;;25.57;55.53;100282.50;4774580;29;20413;-49
2021/07/09 05:34:48;;;;;;;9.77;4.55;;;;;;;25.66;54.95;100274.56;4767324;29;20048;-50
2021/07/09 05:37:14;;;;;;;4.78;4.00;;;;;;;25.74;53.90;100273.91;4766331;30;20056;-55
2021/07/09 05:39:40;;;;;;;9.68;4.38;;;;;;;25.84;53.36;100276.59;4769109;30;20734;-49
2021/07/09 05:42:05;;;;;;;9.77;6.57;;;;;;;25.92;52.65;100272.25;4784452;30;20122;-48
2021/07/09 05:44:31;;;;;;;13.48;4.88;;;;;;;26.02;53.36;100262.47;4773649;29;20799;-52
2021/07/09 05:46:57;;;;;;;15.38;5.50;;;;;;;26.12;53.14;100265.13;4763357;29;20531;-56
2021/07/09 05:49:23;;;;;;;10.43;5.05;;;;;;;26.24;53.53;100264.06;4751902;30;20148;-54
2021/07/09 05:51:49;;;;;;;13.65;5.28;;;;;;;26.36;53.43;100264.78;4768829;29;20052;-54
2021/07/09 05:54:15;;;;;;;6.43;4.80;;;;;;;26.46;51.57;100268.31;4768007;29;20456;-50
2021/07/09 05:56:40;;;;;;;7.07;4.70;;;;;;;26.56;50.99;100267.34;4764042;30;20063;-59
2021/07/09 05:59:06;;;;;;;11.45;4.50;;;;;;;26.66;50.94;100264.66;4744042;30;20130;-48
2021/07/09 06:01:32;;;;;;;8.48;4.32;;;;;;;26.77;50.33;100261.84;4767115;29;20134;-48
2021/07/09 06:03:58;;;;;;;7.68;4.70;;;;;;;26.90;50.60;100258.91;4770333;30;20100;-47
2021/07/09 06:06:24;;;;;;;15.85;5.05;;;;;;;27.01;50.78;100268.59;4768444;30;20055;-47
2021/07/09 06:08:49;;;;;;;6.00;4.32;;;;;;;27.10;48.72;100262.38;4768418;29;20074;-49
2021/07/09 06:11:15;;;;;;;5.90;4.28;;;;;;;27.20;48.17;100264.06;4763098;29;20102;-48
2021/07/09 06:13:41;;;;;;;9.05;5.05;;;;;;;27.30;48.96;100258.69;4759883;29;20047;-52
2021/07/09 06:16:07;;;;;;;6.00;4.57;;;;;;;27.39;47.83;100257.78;4741145;30;20056;-50
2021/07/09 06:18:33;;;;;;;10.93;4.53;;;;;;;27.51;47.24;100263.84;4768432;29;20078;-47
2021/07/09 06:20:59;;;;;;;7.22;3.72;;;;;;;27.60;47.44;100255.78;4768406;30;20048;-49
2021/07/09 06:23:25;;;;;;;8.27;4.70;;;;;;;27.73;46.58;100264.31;4752253;30;20050;-49
2021/07/09 06:25:51;;;;;;;25.80;5.35;;;;;;;27.87;47.84;100257.59;4768266;29;20040;-53
2021/07/09 06:28:17;;;;;;;7.20;4.63;;;;;;;27.98;45.94;100252.06;4751663;30;20076;-53
2021/07/09 06:30:46;;;;;;;7.63;4.57;;;;;;;28.13;45.21;100253.25;4767618;30;20047;-53
2021/07/09 06:33:12;;;;;;;8.90;4.07;;;;;;;28.28;45.05;100256.25;4767359;30;20040;-53
2021/07/09 06:35:39;;;;;;;7.38;4.68;;;;;;;28.46;44.04;100245.56;4748471;30;20036;-50
2021/07/09 06:38:05;;;;;;;13.10;4.60;;;;;;;28.64;43.97;100257.06;4763755;29;20051;-50
2021/07/09 06:40:31;;;;;;;8.48;5.13;;;;;;;28.85;43.26;100252.25;4765134;29;20055;-53
2021/07/09 06:42:56;;;;;;;9.43;4.40;;;;;;;29.06;41.44;100252.75;4761479;29;20047;-54
2021/07/09 06:45:23;;;;;;;7.15;4.50;;;;;;;29.63;39.23;100241.53;4760754;30;20060;-54
2021/07/09 06:47:49;;;;;;;10.18;4.72;;;;;;;30.26;39.00;100241.91;4763301;30;20060;-51
2021/07/09 06:50:15;;;;;;;7.07;4.15;;;;;;;31.09;38.83;100248.81;4770786;29;20043;-54
2021/07/09 06:52:42;;;;;;;6.68;4.32;;;;;;;31.63;35.03;100248.19;4771509;29;20036;-54
2021/07/09 06:55:08;;;;;;;10.38;5.70;;;;;;;32.43;34.45;100256.88;4771720;30;20223;-49
2021/07/09 06:57:34;;;;;;;6.97;5.32;;;;;;;33.62;32.40;100255.91;4771239;30;20047;-46
2021/07/09 07:00:00;;;;;;;7.95;5.07;;;;;;;34.58;31.22;100252.06;4771365;30;20048;-48
2021/07/09 07:02:25;;;;;;;10.32;5.38;;;;;;;35.77;30.07;100252.94;4771247;29;20063;-48
2021/07/09 07:04:54;;;;;;;27.98;6.30;;;;;;;36.66;29.00;100261.75;4770047;30;20051;-47
2021/07/09 07:07:19;;;;;;;20.25;6.57;;;;;;;37.50;27.55;100260.00;4767293;30;20063;-48
2021/07/09 07:09:45;;;;;;;26.80;9.50;;;;;;;38.34;27.07;100262.59;4750433;30;20047;-48
2021/07/09 07:12:10;;;;;;;9.50;6.10;;;;;;;39.02;25.26;100260.00;4771021;30;20100;-47
2021/07/09 07:14:36;;;;;;;9.05;5.53;;;;;;;39.79;24.63;100261.28;4770179;30;20060;-52
2021/07/09 07:17:03;;;;;;;7.90;6.60;;;;;;;40.55;24.18;100261.50;4771858;29;20054;-50
2021/07/09 07:19:28;;;;;;;17.27;6.25;;;;;;;41.24;24.31;100257.19;4766629;29;20079;-48
2021/07/09 07:21:54;;;;;;;8.60;5.82;;;;;;;41.64;21.94;100260.00;4771447;30;20476;-49
2021/07/09 07:24:20;;;;;;;6.90;4.03;;;;;;;42.16;22.96;100268.97;4776322;29;20051;-51
2021/07/09 07:26:47;;;;;;;8.20;6.85;;;;;;;42.80;21.31;100255.94;4765432;29;20150;-50
2021/07/09 07:29:12;;;;;;;9.07;6.70;;;;;;;42.79;22.20;100267.09;4767229;30;20035;-54
2021/07/09 07:31:39;;;;;;;7.32;5.60;;;;;;;42.30;20.58;100263.22;4766148;29;20051;-52
2021/07/09 07:34:05;;;;;;;6.38;5.38;;;;;;;42.41;20.96;100257.69;4766293;29;20051;-50
2021/07/09 07:36:30;;;;;;;7.10;6.13;;;;;;;41.85;20.38;100256.59;4763522;30;20593;-54
2021/07/09 07:38:56;;;;;;;6.70;5.47;;;;;;;42.16;20.40;100254.47;4765965;30;20118;-51
2021/07/09 07:41:22;;;;;;;5.97;5.47;;;;;;;42.38;19.44;100247.25;4766784;29;20127;-49
2021/07/09 07:46:48;;;;;;;7.85;5.95;;;;;;;42.96;20.16;100248.78;4968633;24;20058;-51
2021/07/09 07:49:14;;;;;;;6.55;5.88;;;;;;;43.86;19.97;100249.19;4802085;29;20051;-50
2021/07/09 07:51:40;;;;;;;7.47;5.15;;;;;;;44.52;19.56;100249.91;4802452;29;20421;-51
2021/07/09 07:54:05;;;;;;;5.78;5.07;;;;;;;44.68;18.89;100251.72;4800652;29;20055;-51
2021/07/09 07:56:31;;;;;;;7.40;5.93;;;;;;;43.99;20.00;100241.69;4807790;29;20108;-53
2021/07/09 07:58:56;;;;;;;7.88;5.85;;;;;;;44.77;19.12;100251.22;4801594;29;20051;-52
2021/07/09 08:01:24;;;;;;;9.48;5.50;;;;;;;45.52;18.85;100242.63;4801939;29;20570;-50
2021/07/09 08:03:50;;;;;;;6.50;5.95;;;;;;;45.59;17.14;100243.22;4801541;29;20043;-49
2021/07/09 08:06:16;;;;;;;7.60;5.45;;;;;;;45.57;17.81;100250.91;4807339;29;20065;-49
2021/07/09 08:08:43;;;;;;;8.20;6.18;;;;;;;45.38;18.77;100239.50;4819090;29;20418;-53
2021/07/09 08:11:09;;;;;;;11.95;6.47;;;;;;;45.62;18.32;100239.94;4806145;29;20145;-52
2021/07/09 08:13:34;;;;;;;22.75;8.02;;;;;;;45.75;17.75;100241.34;4815786;29;20526;-53
2021/07/09 08:16:01;;;;;;;6.57;5.97;;;;;;;45.76;16.78;100235.56;4824252;29;20081;-50
2021/07/09 08:18:27;;;;;;;6.68;5.85;;;;;;;45.26;18.13;100236.19;4791145;29;20042;-49
2021/07/09 08:20:53;;;;;;;6.38;5.80;;;;;;;45.88;17.76;100238.09;4805671;29;20526;-51
2021/07/09 08:23:19;;;;;;;8.50;5.65;;;;;;;46.53;17.48;100244.81;4806016;29;20145;-51
2021/07/09 08:25:44;;;;;;;13.77;6.95;;;;;;;47.09;16.94;100240.94;4805751;29;20130;-49
2021/07/09 08:28:14;;;;;;;6.82;6.28;;;;;;;47.42;16.60;100230.38;4800492;29;20136;-48
2021/07/09 08:30:41;;;;;;;8.15;6.68;;;;;;;47.64;15.63;100228.06;4801876;29;20134;-55
2021/07/09 08:33:06;;;;;;;;;;;;;;;47.90;15.85;100229.56;4801276;29;20640;-52
2021/07/09 08:35:32;;;;;;;6.93;6.37;;;;;;;48.20;16.10;100222.25;4802028;29;19925;-50
2021/07/09 08:37:58;;;;;;;7.50;6.80;;;;;;;48.41;15.54;100221.00;4800924;29;20522;-51
2021/07/09 08:40:23;;;;;;;7.20;6.45;;;;;;;48.68;15.83;100224.03;4801028;29;20522;-50
2021/07/09 08:42:49;;;;;;;7.60;6.93;;;;;;;49.04;15.19;100223.69;4800958;29;20069;-50
2021/07/09 08:45:15;;;;;;;19.85;7.82;;;;;;;49.22;14.78;100215.47;4800977;29;20070;-50
2021/07/09 08:47:41;;;;;;;8.70;6.75;;;;;;;49.45;14.84;100224.91;4801522;29;20058;-50
2021/07/09 08:50:07;;;;;;;9.23;8.17;;;;;;;49.66;14.12;100216.31;4811920;29;20049;-50
2021/07/09 08:52:36;;;;;;;7.63;6.90;;;;;;;49.94;14.11;100220.91;4805304;29;20055;-50
2021/07/09 08:55:04;;;;;;;7.68;6.93;;;;;;;49.92;14.35;100217.63;4804938;29;20051;-49
2021/07/09 08:57:30;;;;;;;9.00;8.10;;;;;;;49.86;13.17;100218.81;4788912;29;20050;-50
2021/07/09 08:59:55;;;;;;;8.85;7.95;;;;;;;49.79;13.63;100218.38;4805551;29;20117;-50
2021/07/09 09:02:27;;;;;;;7.63;6.93;;;;;;;49.77;14.39;100207.63;4788927;29;20046;-51
2021/07/09 09:04:53;;;;;;;10.07;7.32;;;;;;;49.82;14.47;100199.25;4793784;29;20058;-50
2021/07/09 09:07:19;;;;;;;10.52;7.50;;;;;;;50.08;14.09;100205.19;4810704;29;20058;-49
2021/07/09 09:09:44;;;;;;;7.53;6.93;;;;;;;50.27;14.25;100202.41;4809476;29;20096;-49
2021/07/09 09:12:17;;;;;;;8.60;7.90;;;;;;;50.38;13.83;100195.56;4818653;29;20100;-49
2021/07/09 09:14:48;;;;;;;8.63;7.82;;;;;;;50.19;13.95;100195.63;4816830;29;20039;-51
2021/07/09 09:17:28;;;;;;;8.10;7.40;;;;;;;50.29;13.82;100197.41;4801146;29;20112;-50
2021/07/09 09:20:13;;;;;;;8.55;7.75;;;;;;;50.40;13.67;100199.69;4800000;29;20139;-49
2021/07/09 09:22:48;;;;;;;12.43;8.90;;;;;;;50.50;12.97;100206.22;4800996;29;20408;-51
2021/07/09 09:25:18;;;;;;;9.18;8.02;;;;;;;50.28;12.39;100193.81;4802217;29;20533;-51
2021/07/09 09:27:59;;;;;;;8.93;8.23;;;;;;;49.86;12.59;100194.75;4800206;29;20055;-54
2021/07/09 09:30:25;;;;;;;9.50;8.43;;;;;;;49.65;12.48;100187.84;4799006;29;20050;-50
2021/07/09 09:32:51;;;;;;;9.40;8.60;;;;;;;49.54;12.77;100175.28;4801794;29;20104;-52
2021/07/09 09:35:25;;;;;;;9.10;8.30;;;;;;;49.80;13.73;100181.28;4800783;29;20141;-51
2021/07/09 09:37:59;;;;;;;7.93;7.43;;;;;;;50.20;13.63;100180.66;4799655;29;20042;-54
2021/07/09 09:40:27;;;;;;;9.48;8.52;;;;;;;50.58;13.02;100181.41;4802516;29;20039;-52
2021/07/09 09:42:53;;;;;;;8.63;7.82;;;;;;;50.73;12.84;100178.31;4811293;29;20090;-51
2021/07/09 09:45:21;;;;;;;9.02;8.32;;;;;;;50.38;13.27;100179.78;4823016;29;20054;-52
2021/07/09 09:47:47;;;;;;;9.52;8.70;;;;;;;50.43;13.09;100171.41;4802641;29;20189;-51
2021/07/09 09:50:16;;;;;;;9.55;8.70;;;;;;;50.68;13.00;100174.84;4799484;29;20138;-53
2021/07/09 09:52:45;;;;;;;72.57;15.82;;;;;;;50.78;12.95;100167.19;4796860;29;20043;-52
2021/07/09 09:58:14;;;;;;;;;;;;;;;50.77;12.55;100165.53;4825074;24;20071;-51
2021/07/09 10:00:42;;;;;;;11.85;9.93;;;;;;;50.79;12.63;100159.69;4804258;29;19944;-51
2021/07/09 10:03:08;;;;;;;10.00;8.90;;;;;;;50.80;12.05;100148.31;4804233;29;20070;-52
2021/07/09 10:05:37;;;;;;;9.57;8.70;;;;;;;50.79;12.35;100152.22;4787898;29;20127;-49
2021/07/09 10:08:04;;;;;;;13.35;9.35;;;;;;;50.77;12.32;100156.41;4800687;29;20073;-52
2021/07/09 10:10:31;;;;;;;7.72;6.18;;;;;;;49.48;12.79;100149.66;4799948;29;20126;-52
2021/07/09 10:12:57;;;;;;;12.20;6.82;;;;;;;47.12;14.54;100135.69;4800032;29;20050;-52
2021/07/09 10:15:26;;;;;;;8.75;7.90;;;;;;;46.96;14.20;100128.59;4816779;29;20047;-53
2021/07/09 10:17:54;;;;;;;8.88;7.38;;;;;;;47.88;14.61;100121.50;5224746;24;20881;-53
2021/07/09 10:20:21;;;;;;;8.60;7.90;;;;;;;48.79;13.50;100130.88;4803548;29;20058;-50
2021/07/09 10:22:48;;;;;;;17.00;8.10;;;;;;;48.94;13.30;100125.22;4803520;29;20045;-50
2021/07/09 10:25:15;;;;;;;9.35;8.20;;;;;;;49.36;13.45;100120.81;4787791;29;20043;-49
2021/07/09 10:27:44;;;;;;;8.77;7.90;;;;;;;49.67;13.27;100132.25;4786610;29;20129;-49
2021/07/09 10:30:10;;;;;;;9.13;8.20;;;;;;;49.16;12.71;100119.94;4799424;29;20487;-52
2021/07/09 10:32:43;;;;;;;9.65;8.20;;;;;;;49.49;13.28;100128.38;4799152;29;20059;-53
2021/07/09 10:35:11;;;;;;;8.52;7.75;;;;;;;49.84;13.19;100116.78;4799103;29;20061;-50
2021/07/09 10:40:42;;;;;;;10.25;9.30;;;;;;;50.31;13.00;100115.69;4734721;30;20060;-55
2021/07/09 10:43:10;;;;;;;8.82;7.95;;;;;;;50.49;13.07;100107.66;4715416;30;20044;-51
2021/07/09 10:45:38;;;;;;;8.77;8.05;;;;;;;50.72;13.09;100104.66;4733043;30;20506;-51
2021/07/09 10:48:10;;;;;;;8.98;8.18;;;;;;;50.54;12.51;100102.84;4683612;30;20056;-52
2021/07/09 10:50:49;;;;;;;8.73;8.02;;;;;;;50.51;13.03;100110.94;4728706;30;20447;-51
2021/07/09 10:53:18;;;;;;;18.23;8.88;;;;;;;50.77;12.65;100095.47;4728127;30;20414;-52
2021/07/09 10:55:53;;;;;;;10.35;7.85;;;;;;;50.82;12.99;100096.22;4728327;30;20045;-54
2021/07/09 10:58:23;;;;;;;19.42;9.10;;;;;;;50.84;12.61;100088.38;4728039;30;20552;-49
2021/07/09 11:00:55;;;;;;;8.82;8.13;;;;;;;50.01;11.99;100083.00;4727802;30;20075;-51
2021/07/09 11:03:30;;;;;;;9.25;7.68;;;;;;;49.84;12.84;100080.00;4728657;30;20103;-50
2021/07/09 11:06:17;;;;;;;8.60;7.88;;;;;;;49.84;12.30;100077.22;4727512;30;20048;-51
2021/07/09 11:08:53;;;;;;;;;;;;;;;49.75;12.44;100084.53;4732764;30;20069;-52
2021/07/09 11:11:47;;;;;;;8.80;8.07;;;;;;;50.09;11.95;100079.56;4726651;30;19933;-49
2021/07/09 11:14:13;;;;;;;8.88;7.70;;;;;;;49.89;12.98;100075.19;4726581;30;20074;-52
2021/07/09 11:16:40;;;;;;;32.03;8.93;;;;;;;50.26;12.39;100082.56;4728622;30;20517;-51
2021/07/09 11:19:09;;;;;;;;;;;;;;;50.55;12.67;100075.97;4727642;30;20589;-53
2021/07/09 11:21:38;;;;;;;8.80;7.80;;;;;;;50.71;12.46;100069.00;4728306;30;20448;-52
2021/07/09 11:24:09;;;;;;;11.50;8.50;;;;;;;50.86;12.61;100065.94;4727298;30;20084;-52
2021/07/09 11:26:53;;;;;;;9.27;8.38;;;;;;;51.05;12.27;100069.38;4712306;30;20049;-49
2021/07/09 11:29:31;;;;;;;12.75;8.20;;;;;;;50.99;12.28;100056.75;5206290;24;20090;-54